createdAt,value
2022-11-24T00:00:32.466Z,35.03
2022-11-24T00:02:34.625Z,31.73
2022-11-24T00:04:36.675Z,32.10
2022-11-24T00:06:38.559Z,31.92
2022-11-24T00:08:42.354Z,32.88
2022-11-24T00:10:44.225Z,39.50
2022-11-24T00:12:46.096Z,33.08
2022-11-24T00:14:47.970Z,31.75
2022-11-24T00:16:49.890Z,35.20
2022-11-24T00:18:54.753Z,38.50
2022-11-24T00:20:56.787Z,34.25
2022-11-24T00:22:58.687Z,35.45
2022-11-24T00:25:00.534Z,33.08
2022-11-24T00:27:02.473Z,31.75
2022-11-24T00:29:06.776Z,35.13
2022-11-24T00:31:23.855Z,36.60
2022-11-24T00:33:25.832Z,33.95
2022-11-24T00:35:27.726Z,31.20
2022-11-24T00:37:29.587Z,30.92
2022-11-24T00:39:31.427Z,32.28
2022-11-24T00:41:34.301Z,31.30
2022-11-24T00:43:36.152Z,31.27
2022-11-24T00:45:38.076Z,34.92
2022-11-24T00:47:40.100Z,32.40
2022-11-24T00:49:41.913Z,32.08
2022-11-24T00:51:43.727Z,33.95
2022-11-24T00:53:45.799Z,34.83
2022-11-24T00:55:50.078Z,37.33
2022-11-24T00:57:51.917Z,34.20
2022-11-24T00:59:54.166Z,35.17
2022-11-24T01:01:55.987Z,32.13
2022-11-24T01:03:59.748Z,32.85
2022-11-24T01:06:07.366Z,37.28
2022-11-24T01:08:09.679Z,31.35
2022-11-24T01:10:11.507Z,34.85
2022-11-24T01:12:13.716Z,36.47
2022-11-24T01:14:15.534Z,33.35
2022-11-24T01:16:21.684Z,31.60
2022-11-24T01:18:23.636Z,42.60
2022-11-24T01:20:25.503Z,33.30
2022-11-24T01:22:27.347Z,37.60
2022-11-24T01:24:29.424Z,36.83
2022-11-24T01:26:31.258Z,39.28
2022-11-24T01:28:33.205Z,43.05
2022-11-24T01:30:35.166Z,39.92
2022-11-24T01:32:37.078Z,39.20
2022-11-24T01:34:38.917Z,37.28
2022-11-24T01:36:40.842Z,34.80
2022-11-24T01:38:42.723Z,34.92
2022-11-24T01:40:44.831Z,37.03
2022-11-24T01:42:53.436Z,38.10
2022-11-24T01:45:27.220Z,34.78
2022-11-24T01:47:39.092Z,40.13
2022-11-24T01:49:49.018Z,33.65
2022-11-24T01:52:19.776Z,32.72
2022-11-24T01:54:45.538Z,33.72
2022-11-24T01:56:52.075Z,30.23
2022-11-24T01:58:58.852Z,30.27
2022-11-24T02:01:00.928Z,31.50
2022-11-24T02:03:03.619Z,30.65
2022-11-24T02:05:11.067Z,28.73
2022-11-24T02:07:13.950Z,31.92
2022-11-24T02:09:41.919Z,30.10
2022-11-24T02:11:44.822Z,29.50
2022-11-24T02:13:48.145Z,30.80
2022-11-24T02:15:50.137Z,32.22
2022-11-24T02:17:51.986Z,30.90
2022-11-24T02:19:59.051Z,27.65
2022-11-24T02:22:03.438Z,28.73
2022-11-24T02:24:28.836Z,29.95
2022-11-24T02:26:43.202Z,31.50
2022-11-24T02:28:46.235Z,30.27
2022-11-24T02:30:48.786Z,29.70
2022-11-24T02:32:51.828Z,28.23
2022-11-24T02:35:05.224Z,27.27
2022-11-24T02:37:07.525Z,25.73
2022-11-24T02:39:14.225Z,24.52
2022-11-24T02:41:19.694Z,23.77
2022-11-24T02:43:23.795Z,25.42
2022-11-24T02:45:26.713Z,26.73
2022-11-24T02:47:29.055Z,26.05
2022-11-24T02:49:31.026Z,27.98
2022-11-24T02:51:32.913Z,27.98
2022-11-24T02:53:35.053Z,26.92
2022-11-24T02:55:36.878Z,26.83
2022-11-24T02:57:38.725Z,25.95
2022-11-24T02:59:40.627Z,26.35
2022-11-24T03:01:42.515Z,28.63
2022-11-24T03:03:44.497Z,27.77
2022-11-24T03:05:46.823Z,28.35
2022-11-24T03:07:48.695Z,28.05
2022-11-24T03:09:50.602Z,27.33
2022-11-24T03:11:52.692Z,25.95
2022-11-24T03:13:54.515Z,27.33
2022-11-24T03:15:56.393Z,26.55
2022-11-24T03:17:59.071Z,26.83
2022-11-24T03:20:04.586Z,27.27
2022-11-24T03:22:07.070Z,26.65
2022-11-24T03:24:09.192Z,27.08
2022-11-24T03:26:16.433Z,27.45
2022-11-24T03:28:18.254Z,31.42
2022-11-24T03:30:20.518Z,35.55
2022-11-24T03:32:22.354Z,33.13
2022-11-24T03:34:24.318Z,27.83
2022-11-24T03:36:26.259Z,35.55
2022-11-24T03:38:28.796Z,31.95
2022-11-24T03:40:30.614Z,28.85
2022-11-24T03:42:32.625Z,28.73
2022-11-24T03:44:34.748Z,30.25
2022-11-24T03:46:36.947Z,31.52
2022-11-24T03:48:39.259Z,33.45
2022-11-24T03:50:41.263Z,30.60
2022-11-24T03:52:43.083Z,30.90
2022-11-24T03:54:45.311Z,29.40
2022-11-24T03:56:47.148Z,28.50
2022-11-24T03:58:49.029Z,28.20
2022-11-24T04:00:52.537Z,27.17
2022-11-24T04:02:54.405Z,27.08
2022-11-24T04:04:56.312Z,24.17
2022-11-24T04:06:58.190Z,24.02
2022-11-24T04:09:00.869Z,24.27
2022-11-24T04:11:02.842Z,23.87
2022-11-24T04:13:11.735Z,22.63
2022-11-24T04:15:16.878Z,24.70
2022-11-24T04:17:18.722Z,27.38
2022-11-24T04:19:20.732Z,27.02
2022-11-24T04:21:22.604Z,26.65
2022-11-24T04:23:24.416Z,29.45
2022-11-24T04:25:26.617Z,26.75
2022-11-24T04:27:28.690Z,25.25
2022-11-24T04:29:30.500Z,25.25
2022-11-24T04:31:32.583Z,24.10
2022-11-24T04:33:34.602Z,22.17
2022-11-24T04:35:36.418Z,22.63
2022-11-24T04:37:38.952Z,24.90
2022-11-24T04:39:40.860Z,23.23
2022-11-24T04:41:42.690Z,25.08
2022-11-24T04:43:44.771Z,24.13
2022-11-24T04:45:46.628Z,24.25
2022-11-24T04:47:48.427Z,24.08
2022-11-24T04:49:50.802Z,25.13
2022-11-24T04:51:52.638Z,23.95
2022-11-24T04:53:54.522Z,24.73
2022-11-24T04:55:56.584Z,24.17
2022-11-24T04:57:58.396Z,25.42
2022-11-24T05:00:00.371Z,25.48
2022-11-24T05:02:02.405Z,25.13
2022-11-24T05:04:04.352Z,23.85
2022-11-24T05:06:06.845Z,24.85
2022-11-24T05:08:23.080Z,21.77
2022-11-24T05:10:24.857Z,22.58
2022-11-24T05:12:27.503Z,25.20
2022-11-24T05:14:29.304Z,25.17
2022-11-24T05:16:31.079Z,22.83
2022-11-24T05:18:32.914Z,25.20
2022-11-24T05:20:35.580Z,26.45
2022-11-24T05:22:37.404Z,29.27
2022-11-24T05:24:39.126Z,33.25
2022-11-24T05:26:41.093Z,33.83
2022-11-24T05:28:42.920Z,34.92
2022-11-24T05:30:45.420Z,33.15
2022-11-24T05:32:47.515Z,33.95
2022-11-24T05:34:49.320Z,31.95
2022-11-24T05:36:51.062Z,36.17
2022-11-24T05:38:52.983Z,33.08
2022-11-24T05:40:54.748Z,35.15
2022-11-24T05:42:56.500Z,35.47
2022-11-24T05:44:58.342Z,39.20
2022-11-24T05:47:00.192Z,40.05
2022-11-24T05:49:01.984Z,40.78
2022-11-24T05:51:07.957Z,39.15
2022-11-24T05:53:13.392Z,38.00
2022-11-24T05:55:15.956Z,36.90
2022-11-24T05:57:18.206Z,35.83
2022-11-24T05:59:19.926Z,31.20
2022-11-24T06:01:21.611Z,32.45
2022-11-24T06:03:23.488Z,29.90
2022-11-24T06:05:25.960Z,33.65
2022-11-24T06:07:27.760Z,32.80
2022-11-24T06:09:29.852Z,32.85
2022-11-24T06:11:31.542Z,31.63
2022-11-24T06:13:33.271Z,32.10
2022-11-24T06:15:35.648Z,33.00
2022-11-24T06:17:37.820Z,32.65
2022-11-24T06:19:42.085Z,31.73
2022-11-24T06:21:44.399Z,29.60
2022-11-24T06:23:49.768Z,31.80
2022-11-24T06:25:51.671Z,30.27
2022-11-24T06:27:53.754Z,27.25
2022-11-24T06:29:55.493Z,26.73
2022-11-24T06:31:57.288Z,26.75
2022-11-24T06:33:59.537Z,26.10
2022-11-24T06:36:03.571Z,27.25
2022-11-24T06:38:05.487Z,27.75
2022-11-24T06:40:08.118Z,28.13
2022-11-24T06:42:09.844Z,29.40
2022-11-24T06:44:11.542Z,30.45
2022-11-24T06:46:14.175Z,36.53
2022-11-24T06:48:15.930Z,32.20
2022-11-24T06:50:17.649Z,30.27
2022-11-24T06:52:19.652Z,26.58
2022-11-24T06:54:21.452Z,38.03
2022-11-24T06:56:23.190Z,28.33
2022-11-24T06:58:25.086Z,27.88
2022-11-24T07:00:26.776Z,28.15
2022-11-24T07:02:28.503Z,33.10
2022-11-24T07:04:30.460Z,33.42
2022-11-24T07:06:32.145Z,27.38
2022-11-24T07:08:33.927Z,27.70
2022-11-24T07:10:36.118Z,27.73
2022-11-24T07:12:37.815Z,29.38
2022-11-24T07:14:39.507Z,27.25
2022-11-24T07:16:41.708Z,28.40
2022-11-24T07:18:44.954Z,26.60
2022-11-24T07:20:46.644Z,27.08
2022-11-24T07:22:48.772Z,28.15
2022-11-24T07:24:50.469Z,27.95
2022-11-24T07:26:52.160Z,29.92
2022-11-24T07:28:54.513Z,29.70
2022-11-24T07:30:56.379Z,32.10
2022-11-24T07:33:04.268Z,29.85
2022-11-24T07:35:06.712Z,30.63
2022-11-24T07:37:08.407Z,28.95
2022-11-24T07:39:10.126Z,32.92
2022-11-24T07:41:14.303Z,34.17
2022-11-24T07:43:20.158Z,35.40
2022-11-24T07:45:23.289Z,31.80
2022-11-24T07:47:25.256Z,29.63
2022-11-24T07:49:26.963Z,29.20
2022-11-24T07:51:28.731Z,29.52
2022-11-24T07:53:31.980Z,29.42
2022-11-24T07:55:33.711Z,29.23
2022-11-24T07:57:35.784Z,30.02
2022-11-24T07:59:37.756Z,33.53
2022-11-24T08:01:39.499Z,32.70
2022-11-24T08:03:42.079Z,30.58
2022-11-24T08:06:07.883Z,31.80
2022-11-24T08:08:05.721Z,33.35
2022-11-24T08:10:07.911Z,32.00
2022-11-24T08:12:09.912Z,32.10
2022-11-24T08:14:11.663Z,28.40
2022-11-24T08:16:15.593Z,33.15
2022-11-24T08:18:17.760Z,31.85
2022-11-24T08:20:19.609Z,31.00
2022-11-24T08:22:21.625Z,30.02
2022-11-24T08:24:23.461Z,38.10
2022-11-24T08:26:26.180Z,38.17
2022-11-24T08:28:27.885Z,35.80
2022-11-24T08:30:30.586Z,28.02
2022-11-24T08:32:32.323Z,31.23
2022-11-24T08:34:34.670Z,37.25
2022-11-24T08:36:36.980Z,40.58
2022-11-24T08:38:39.232Z,34.83
2022-11-24T08:40:40.931Z,35.85
2022-11-24T08:42:42.912Z,30.85
2022-11-24T08:44:44.725Z,30.13
2022-11-24T08:46:46.422Z,34.25
2022-11-24T08:48:53.819Z,31.42
2022-11-24T08:50:56.315Z,30.17
2022-11-24T08:52:58.032Z,30.48
2022-11-24T08:55:00.033Z,30.67
2022-11-24T08:57:01.804Z,39.78
2022-11-24T08:59:03.552Z,46.22
2022-11-24T09:01:08.280Z,45.75
2022-11-24T09:03:12.227Z,78.38
2022-11-24T09:05:43.707Z,46.55
2022-11-24T09:07:35.903Z,32.65
2022-11-24T09:09:37.734Z,34.13
2022-11-24T09:11:39.528Z,34.20
2022-11-24T09:13:41.623Z,45.28
2022-11-24T09:15:43.668Z,43.47
2022-11-24T09:17:45.407Z,43.67
2022-11-24T09:22:06.309Z,45.60
2022-11-24T09:24:08.443Z,35.15
2022-11-24T09:26:33.173Z,42.30
2022-11-24T09:28:36.135Z,34.45
2022-11-24T09:30:37.907Z,30.40
2022-11-24T09:32:39.654Z,29.85
2022-11-24T09:34:41.509Z,50.92
2022-11-24T09:36:43.308Z,33.88
2022-11-24T09:38:45.161Z,34.38
2022-11-24T09:40:46.992Z,56.78
2022-11-24T09:43:09.344Z,36.95
2022-11-24T09:45:19.978Z,46.45
2022-11-24T09:47:50.017Z,41.22
2022-11-24T09:50:02.625Z,34.67
2022-11-24T09:52:10.175Z,32.08
2022-11-24T09:54:20.744Z,25.27
2022-11-24T09:56:26.190Z,23.42
2022-11-24T09:58:41.114Z,24.25
2022-11-24T10:00:43.259Z,27.40
2022-11-24T10:02:48.914Z,29.95
2022-11-24T10:04:50.759Z,41.20
2022-11-24T10:07:11.930Z,29.45
2022-11-24T10:09:21.396Z,29.20
2022-11-24T10:11:51.424Z,25.85
2022-11-24T10:14:02.143Z,23.83
2022-11-24T10:16:39.267Z,21.60
2022-11-24T10:18:43.702Z,25.05
2022-11-24T10:20:51.570Z,29.83
2022-11-24T10:23:12.012Z,39.35
2022-11-24T10:25:25.226Z,35.55
2022-11-24T10:27:33.910Z,90.88
2022-11-24T10:29:41.020Z,43.00
2022-11-24T10:31:44.706Z,49.55
2022-11-24T10:33:47.859Z,42.58
2022-11-24T10:36:07.559Z,40.50
2022-11-24T10:38:21.620Z,29.10
2022-11-24T10:43:00.982Z,26.35
2022-11-24T10:45:14.550Z,29.33
2022-11-24T10:47:21.501Z,33.80
2022-11-24T10:49:27.521Z,33.92
2022-11-24T10:51:59.784Z,28.45
2022-11-24T10:54:07.231Z,28.42
2022-11-24T10:56:08.962Z,27.85
2022-11-24T10:58:16.950Z,27.30
2022-11-24T11:00:18.603Z,25.40
2022-11-24T11:02:32.611Z,29.27
2022-11-24T11:06:36.691Z,22.23
2022-11-24T11:08:39.244Z,23.10
2022-11-24T11:10:43.264Z,23.15
2022-11-24T11:12:45.411Z,22.15
2022-11-24T11:14:47.597Z,24.55
2022-11-24T11:16:54.113Z,29.67
2022-11-24T11:18:56.216Z,30.48
2022-11-24T11:21:01.062Z,26.92
2022-11-24T11:23:15.669Z,27.65
2022-11-24T11:25:24.538Z,27.48
2022-11-24T11:27:26.974Z,23.23
2022-11-24T11:34:41.736Z,27.80
2022-11-24T11:36:52.612Z,28.55
2022-11-24T11:38:54.548Z,30.00
2022-11-24T11:40:56.461Z,35.17
2022-11-24T11:43:17.387Z,48.20
2022-11-24T11:45:25.969Z,59.83
2022-11-24T11:47:33.533Z,72.60
2022-11-24T11:49:38.483Z,61.17
2022-11-24T11:52:13.509Z,51.03
2022-11-24T11:54:30.165Z,50.85
2022-11-24T11:56:37.596Z,44.15
2022-11-24T11:58:39.505Z,75.38
2022-11-24T12:01:01.255Z,65.72
2022-11-24T12:03:21.767Z,57.10
2022-11-24T12:05:49.771Z,52.80
2022-11-24T12:08:10.882Z,30.00
2022-11-24T12:10:20.295Z,33.65
2022-11-24T12:12:24.891Z,27.30
2022-11-24T12:14:58.606Z,25.52
2022-11-24T12:17:09.587Z,40.92
2022-11-24T12:19:44.927Z,50.30
2022-11-24T12:21:54.321Z,31.45
2022-11-24T12:24:20.697Z,43.83
2022-11-24T12:26:55.766Z,32.47
2022-11-24T12:29:13.479Z,30.77
2022-11-24T12:31:35.445Z,51.38
2022-11-24T12:34:01.361Z,37.30
2022-11-24T12:36:21.829Z,46.50
2022-11-24T12:38:23.477Z,40.75
2022-11-24T12:40:46.584Z,53.40
2022-11-24T12:43:09.621Z,25.40
2022-11-24T12:45:15.153Z,36.30
2022-11-24T12:47:39.538Z,54.88
2022-11-24T12:55:54.539Z,24.80
2022-11-24T12:58:09.346Z,26.73
2022-11-24T13:01:02.299Z,22.63
2022-11-24T13:03:34.787Z,23.88
2022-11-24T13:06:08.871Z,24.55
2022-11-24T13:08:11.085Z,46.97
2022-11-24T13:12:57.372Z,33.78
2022-11-24T13:14:59.454Z,31.70
2022-11-24T13:17:28.829Z,28.77
2022-11-24T13:19:35.824Z,27.30
2022-11-24T13:21:40.539Z,29.70
2022-11-24T13:23:42.350Z,27.02
2022-11-24T13:26:27.839Z,34.42
2022-11-24T13:29:08.959Z,30.92
2022-11-24T13:31:22.812Z,36.58
2022-11-24T13:33:32.724Z,118.40
2022-11-24T13:35:34.465Z,83.07
2022-11-24T13:37:36.332Z,48.00
2022-11-24T13:39:58.393Z,31.27
2022-11-24T13:42:00.822Z,31.42
2022-11-24T13:44:14.424Z,31.20
2022-11-24T13:47:04.831Z,32.67
2022-11-24T13:49:14.313Z,34.33
2022-11-24T13:51:23.862Z,31.02
2022-11-24T13:53:31.803Z,29.25
2022-11-24T13:55:38.381Z,39.10
2022-11-24T13:57:45.637Z,34.25
2022-11-24T13:59:47.947Z,34.53
2022-11-24T14:01:57.523Z,23.98
2022-11-24T14:04:30.637Z,37.58
2022-11-24T14:06:34.728Z,42.30
2022-11-24T14:08:38.359Z,30.73
2022-11-24T14:12:43.057Z,31.90
2022-11-24T14:14:49.760Z,24.40
2022-11-24T14:17:13.465Z,26.65
2022-11-24T14:19:18.804Z,25.55
2022-11-24T14:21:20.510Z,22.73
2022-11-24T14:23:23.012Z,25.50
2022-11-24T14:25:32.503Z,30.48
2022-11-24T14:27:38.056Z,25.58
2022-11-24T14:29:55.301Z,25.38
2022-11-24T14:31:59.745Z,24.20
2022-11-24T14:34:18.980Z,23.33
2022-11-24T14:36:21.347Z,24.50
2022-11-24T14:38:23.162Z,25.70
2022-11-24T14:40:43.311Z,29.05
2022-11-24T14:42:50.417Z,20.15
2022-11-24T14:44:55.951Z,28.60
2022-11-24T14:47:14.988Z,34.40
2022-11-24T14:49:19.209Z,41.38
2022-11-24T14:51:36.323Z,38.17
2022-11-24T14:53:42.886Z,29.50
2022-11-24T14:55:44.677Z,35.30
2022-11-24T14:57:46.569Z,32.13
2022-11-24T15:00:24.120Z,34.08
2022-11-24T15:02:54.169Z,27.73
2022-11-24T15:05:02.649Z,29.27
2022-11-24T15:07:28.266Z,25.95
2022-11-24T15:09:37.688Z,35.80
2022-11-24T15:11:39.400Z,28.45
2022-11-24T15:13:53.374Z,22.67
2022-11-24T15:18:06.454Z,19.83
2022-11-24T15:20:16.903Z,20.35
2022-11-24T15:22:35.188Z,21.08
2022-11-24T15:24:49.096Z,25.05
2022-11-24T15:26:58.747Z,23.27
2022-11-24T15:29:00.557Z,22.23
2022-11-24T15:31:05.253Z,26.23
2022-11-24T15:33:13.907Z,27.38
2022-11-24T15:35:15.750Z,29.05
2022-11-24T15:37:17.484Z,38.17
2022-11-24T15:39:19.234Z,34.13
2022-11-24T15:41:23.174Z,32.35
2022-11-24T15:43:32.090Z,33.40
2022-11-24T15:45:35.220Z,93.63
2022-11-24T15:47:37.159Z,79.88
2022-11-24T15:49:38.950Z,32.15
2022-11-24T15:51:43.850Z,32.97
2022-11-24T15:53:50.187Z,27.40
2022-11-24T15:55:52.922Z,29.83
2022-11-24T15:57:54.668Z,31.73
2022-11-24T15:59:59.383Z,27.27
2022-11-24T16:02:01.203Z,28.88
2022-11-24T16:04:03.336Z,27.98
2022-11-24T16:06:05.325Z,29.52
2022-11-24T16:08:13.076Z,31.52
2022-11-24T16:10:29.059Z,27.85
2022-11-24T16:12:31.054Z,25.98
2022-11-24T16:14:32.971Z,29.67
2022-11-24T16:16:34.826Z,28.20
2022-11-24T16:18:36.726Z,21.73
2022-11-24T16:20:38.409Z,23.17
2022-11-24T16:22:40.479Z,25.88
2022-11-24T16:24:42.305Z,26.35
2022-11-24T16:26:44.133Z,29.58
2022-11-24T16:28:46.008Z,29.83
2022-11-24T16:30:51.128Z,25.38
2022-11-24T16:32:52.944Z,33.95
2022-11-24T16:34:54.750Z,35.95
2022-11-24T16:36:56.627Z,35.33
2022-11-24T16:38:59.983Z,34.25
2022-11-24T16:41:01.824Z,49.58
2022-11-24T16:43:03.758Z,35.60
2022-11-24T16:45:06.149Z,37.42
2022-11-24T16:47:08.094Z,47.67
2022-11-24T16:49:09.896Z,54.15
2022-11-24T16:51:12.816Z,58.97
2022-11-24T16:53:14.570Z,86.47
2022-11-24T16:55:16.411Z,120.43
2022-11-24T16:57:18.189Z,83.00
2022-11-24T16:59:20.917Z,51.88
2022-11-24T17:01:22.787Z,211.80
2022-11-24T17:03:24.589Z,282.55
2022-11-24T17:05:26.268Z,187.82
2022-11-24T17:07:28.464Z,74.25
2022-11-24T17:09:30.246Z,42.63
2022-11-24T17:11:31.973Z,39.00
2022-11-24T17:13:34.320Z,34.78
2022-11-24T17:15:44.548Z,33.85
2022-11-24T17:18:16.228Z,29.52
2022-11-24T17:20:10.300Z,40.00
2022-11-24T17:22:11.988Z,58.05
2022-11-24T17:24:13.700Z,63.33
2022-11-24T17:26:17.464Z,52.65
2022-11-24T17:28:19.790Z,41.90
2022-11-24T17:30:21.465Z,36.05
2022-11-24T17:32:23.251Z,38.90
2022-11-24T17:34:24.977Z,77.72
2022-11-24T17:36:27.774Z,103.25
2022-11-24T17:38:29.504Z,37.42
2022-11-24T17:40:31.236Z,32.67
2022-11-24T17:42:33.042Z,33.55
2022-11-24T17:44:35.139Z,37.05
2022-11-24T17:46:36.965Z,35.05
2022-11-24T17:48:38.803Z,40.75
2022-11-24T17:50:40.661Z,40.92
2022-11-24T17:52:42.478Z,46.22
2022-11-24T17:54:46.694Z,51.90
2022-11-24T17:56:48.851Z,41.78
2022-11-24T17:58:55.271Z,42.45
2022-11-24T18:00:57.988Z,37.50
2022-11-24T18:02:59.814Z,37.20
2022-11-24T18:05:01.504Z,39.72
2022-11-24T18:07:03.303Z,37.53
2022-11-24T18:09:05.358Z,37.53
2022-11-24T18:11:10.261Z,39.70
2022-11-24T18:13:22.380Z,108.80
2022-11-24T18:15:35.220Z,93.43
2022-11-24T18:17:36.916Z,90.93
2022-11-24T18:19:38.630Z,120.72
2022-11-24T18:21:42.030Z,143.27
2022-11-24T18:23:44.242Z,310.52
2022-11-24T18:25:56.585Z,58.55
2022-11-24T18:27:58.369Z,57.50
2022-11-24T18:30:00.181Z,170.35
2022-11-24T18:32:02.179Z,57.45
2022-11-24T18:34:05.615Z,48.83
2022-11-24T18:36:07.742Z,171.30
2022-11-24T18:38:10.796Z,80.68
2022-11-24T18:40:12.671Z,46.47
2022-11-24T18:42:15.339Z,47.75
2022-11-24T18:44:17.246Z,57.53
2022-11-24T18:46:19.353Z,50.30
2022-11-24T18:48:22.444Z,48.85
2022-11-24T18:50:24.267Z,93.20
2022-11-24T18:52:26.075Z,101.15
2022-11-24T18:54:28.034Z,109.95
2022-11-24T18:56:29.792Z,84.18
2022-11-24T18:58:33.789Z,97.63
2022-11-24T19:00:35.551Z,72.63
2022-11-24T19:02:37.343Z,78.32
2022-11-24T19:04:39.298Z,56.55
2022-11-24T19:06:41.017Z,40.25
2022-11-24T19:08:43.034Z,41.25
2022-11-24T19:10:45.973Z,75.80
2022-11-24T19:12:47.675Z,52.85
2022-11-24T19:14:49.426Z,63.30
2022-11-24T19:16:51.321Z,86.88
2022-11-24T19:18:55.962Z,83.40
2022-11-24T19:20:57.812Z,59.00
2022-11-24T19:22:59.592Z,57.88
2022-11-24T19:25:01.406Z,46.58
2022-11-24T19:27:03.264Z,75.78
2022-11-24T19:29:06.450Z,63.95
2022-11-24T19:31:10.648Z,50.42
2022-11-24T19:33:12.481Z,47.35
2022-11-24T19:35:14.433Z,56.72
2022-11-24T19:37:16.140Z,50.72
2022-11-24T19:39:18.009Z,50.17
2022-11-24T19:41:21.481Z,49.92
2022-11-24T19:43:23.296Z,42.88
2022-11-24T19:45:25.075Z,41.17
2022-11-24T19:47:27.115Z,50.50
2022-11-24T19:49:28.886Z,51.70
2022-11-24T19:51:36.299Z,55.33
2022-11-24T19:53:38.066Z,60.38
2022-11-24T19:55:39.852Z,54.90
2022-11-24T19:57:41.568Z,65.60
2022-11-24T19:59:43.441Z,61.50
2022-11-24T20:01:45.681Z,49.90
2022-11-24T20:03:53.756Z,56.80
2022-11-24T20:05:56.321Z,50.25
2022-11-24T20:07:58.244Z,47.95
2022-11-24T20:10:06.041Z,45.08
2022-11-24T20:12:09.406Z,47.97
2022-11-24T20:14:16.138Z,46.97
2022-11-24T20:16:20.514Z,43.90
2022-11-24T20:18:22.437Z,47.70
2022-11-24T20:20:24.200Z,46.33
2022-11-24T20:22:25.950Z,47.63
2022-11-24T20:24:27.753Z,61.72
2022-11-24T20:26:41.977Z,59.55
2022-11-24T20:28:43.803Z,56.05
2022-11-24T20:30:45.661Z,50.95
2022-11-24T20:32:47.435Z,59.55
2022-11-24T20:34:49.155Z,58.20
2022-11-24T20:36:51.681Z,51.70
2022-11-24T20:38:54.327Z,47.50
2022-11-24T20:41:08.972Z,55.05
2022-11-24T20:43:11.280Z,53.90
2022-11-24T20:45:13.191Z,48.08
2022-11-24T20:47:14.862Z,53.15
2022-11-24T20:49:18.914Z,48.38
2022-11-24T20:51:23.229Z,51.85
2022-11-24T20:53:24.919Z,49.95
2022-11-24T20:55:26.800Z,50.47
2022-11-24T20:57:28.513Z,52.70
2022-11-24T20:59:30.197Z,49.67
2022-11-24T21:01:34.915Z,62.42
2022-11-24T21:03:41.399Z,64.47
2022-11-24T21:05:44.934Z,59.55
2022-11-24T21:07:46.698Z,49.63
2022-11-24T21:09:48.425Z,48.15
2022-11-24T21:11:50.115Z,40.60
2022-11-24T21:13:52.738Z,44.38
2022-11-24T21:15:55.334Z,48.78
2022-11-24T21:17:57.012Z,48.60
2022-11-24T21:20:01.146Z,47.50
2022-11-24T21:22:03.102Z,50.90
2022-11-24T21:24:07.587Z,50.28
2022-11-24T21:26:14.831Z,51.67
2022-11-24T21:28:18.156Z,50.22
2022-11-24T21:30:19.887Z,66.43
2022-11-24T21:32:21.722Z,55.33
2022-11-24T21:34:23.400Z,54.03
2022-11-24T21:36:26.205Z,58.88
2022-11-24T21:38:28.037Z,56.95
2022-11-24T21:40:32.862Z,60.60
2022-11-24T21:42:34.625Z,77.13
2022-11-24T21:44:36.694Z,61.30
2022-11-24T21:46:44.085Z,142.25
2022-11-24T21:48:50.287Z,122.00
2022-11-24T21:50:52.131Z,100.18
2022-11-24T21:52:53.815Z,95.00
2022-11-24T21:54:55.578Z,68.47
2022-11-24T21:56:57.444Z,60.40
2022-11-24T21:58:59.218Z,89.80
2022-11-24T22:01:05.600Z,60.35
2022-11-24T22:03:07.566Z,59.28
2022-11-24T22:05:09.498Z,51.25
2022-11-24T22:07:11.456Z,53.95
2022-11-24T22:09:17.695Z,70.20
2022-11-24T22:11:23.035Z,79.93
2022-11-24T22:13:24.783Z,78.13
2022-11-24T22:15:26.486Z,61.95
2022-11-24T22:17:30.688Z,70.43
2022-11-24T22:19:32.458Z,66.18
2022-11-24T22:21:34.319Z,54.72
2022-11-24T22:23:36.631Z,46.85
2022-11-24T22:25:38.317Z,83.63
2022-11-24T22:27:39.992Z,74.05
2022-11-24T22:29:41.707Z,77.78
2022-11-24T22:31:43.580Z,89.18
2022-11-24T22:33:46.157Z,56.13
2022-11-24T22:36:01.099Z,51.33
2022-11-24T22:38:02.852Z,48.83
2022-11-24T22:40:05.101Z,60.00
2022-11-24T22:42:06.806Z,52.88
2022-11-24T22:44:08.544Z,60.53
2022-11-24T22:46:14.076Z,100.70
2022-11-24T22:48:15.796Z,78.15
2022-11-24T22:50:17.635Z,71.45
2022-11-24T22:52:19.454Z,73.07
2022-11-24T22:54:21.213Z,61.97
2022-11-24T22:56:24.128Z,72.78
2022-11-24T22:58:25.996Z,70.85
2022-11-24T23:00:27.817Z,56.90
2022-11-24T23:02:29.595Z,68.20
2022-11-24T23:04:31.535Z,71.70
2022-11-24T23:06:34.488Z,78.65
2022-11-24T23:08:36.718Z,64.95
2022-11-24T23:10:38.544Z,50.38
2022-11-24T23:12:40.285Z,49.22
2022-11-24T23:14:41.971Z,50.90
2022-11-24T23:16:43.896Z,52.60
2022-11-24T23:18:52.436Z,45.95
2022-11-24T23:20:55.687Z,44.25
2022-11-24T23:22:57.565Z,39.33
2022-11-24T23:24:59.277Z,46.22
2022-11-24T23:27:00.985Z,53.53
2022-11-24T23:29:04.019Z,42.40
2022-11-24T23:31:09.240Z,44.75
2022-11-24T23:33:11.033Z,44.15
2022-11-24T23:35:14.142Z,40.50
2022-11-24T23:37:15.974Z,44.80
2022-11-24T23:39:17.708Z,53.67
2022-11-24T23:41:22.648Z,45.45
2022-11-24T23:43:24.463Z,42.95
2022-11-24T23:45:26.214Z,42.78
2022-11-24T23:47:27.984Z,40.83
2022-11-24T23:49:29.722Z,36.78
2022-11-24T23:51:33.219Z,45.88
2022-11-24T23:53:35.812Z,53.10
2022-11-24T23:55:37.676Z,42.85
2022-11-24T23:57:39.402Z,42.42
2022-11-24T23:59:41.248Z,48.20
